sensor_id;sensor_type;location;lat;lon;timestamp;P1;durP1;ratioP1;P2;durP2;ratioP2
81487;SDS011;70897;52.464;13.428;2023-07-20T00:01:12;8.80;;;5.40;;
81487;SDS011;70897;52.464;13.428;2023-07-20T00:03:57;8.32;;;5.18;;
81487;SDS011;70897;52.464;13.428;2023-07-20T00:06:42;7.38;;;5.20;;
81487;SDS011;70897;52.464;13.428;2023-07-20T00:09:27;7.93;;;5.68;;
81487;SDS011;70897;52.464;13.428;2023-07-20T00:12:12;8.43;;;5.50;;
81487;SDS011;70897;52.464;13.428;2023-07-20T00:14:57;7.72;;;5.10;;
81487;SDS011;70897;52.464;13.428;2023-07-20T00:17:42;10.07;;;6.15;;
81487;SDS011;70897;52.464;13.428;2023-07-20T00:20:29;8.55;;;6.10;;
81487;SDS011;70897;52.464;13.428;2023-07-20T00:23:14;8.55;;;5.90;;
81487;SDS011;70897;52.464;13.428;2023-07-20T00:25:59;8.93;;;5.80;;
81487;SDS011;70897;52.464;13.428;2023-07-20T00:28:44;12.77;;;5.88;;
81487;SDS011;70897;52.464;13.428;2023-07-20T00:31:29;8.25;;;5.80;;
81487;SDS011;70897;52.464;13.428;2023-07-20T00:34:14;8.77;;;5.93;;
81487;SDS011;70897;52.464;13.428;2023-07-20T00:37:00;8.43;;;6.13;;
81487;SDS011;70897;52.464;13.428;2023-07-20T00:39:45;8.90;;;6.28;;
81487;SDS011;70897;52.464;13.428;2023-07-20T00:42:30;10.70;;;6.57;;
81487;SDS011;70897;52.464;13.428;2023-07-20T00:45:15;9.23;;;6.50;;
81487;SDS011;70897;52.464;13.428;2023-07-20T00:48:00;10.07;;;6.65;;
81487;SDS011;70897;52.464;13.428;2023-07-20T00:50:46;7.53;;;6.30;;
81487;SDS011;70897;52.464;13.428;2023-07-20T00:53:32;8.55;;;6.45;;
81487;SDS011;70897;52.464;13.428;2023-07-20T00:56:19;10.43;;;7.53;;
81487;SDS011;70897;52.464;13.428;2023-07-20T00:59:04;14.30;;;10.93;;
81487;SDS011;70897;52.464;13.428;2023-07-20T01:01:50;13.07;;;10.25;;
81487;SDS011;70897;52.464;13.428;2023-07-20T01:04:35;9.32;;;6.95;;
81487;SDS011;70897;52.464;13.428;2023-07-20T01:07:43;7.03;;;6.30;;
81487;SDS011;70897;52.464;13.428;2023-07-20T01:13:25;8.68;;;7.03;;
81487;SDS011;70897;52.464;13.428;2023-07-20T01:16:10;9.52;;;5.90;;
81487;SDS011;70897;52.464;13.428;2023-07-20T01:18:55;10.18;;;7.13;;
81487;SDS011;70897;52.464;13.428;2023-07-20T01:21:45;9.20;;;6.60;;
81487;SDS011;70897;52.464;13.428;2023-07-20T01:33:30;11.20;;;7.03;;
81487;SDS011;70897;52.464;13.428;2023-07-20T01:36:17;8.65;;;6.57;;
81487;SDS011;70897;52.464;13.428;2023-07-20T01:39:04;9.40;;;6.95;;
81487;SDS011;70897;52.464;13.428;2023-07-20T01:41:50;10.45;;;7.20;;
81487;SDS011;70897;52.464;13.428;2023-07-20T01:44:37;11.57;;;7.00;;
81487;SDS011;70897;52.464;13.428;2023-07-20T01:47:22;12.35;;;6.75;;
81487;SDS011;70897;52.464;13.428;2023-07-20T01:50:07;13.43;;;7.30;;
81487;SDS011;70897;52.464;13.428;2023-07-20T01:52:52;8.32;;;7.30;;
81487;SDS011;70897;52.464;13.428;2023-07-20T01:55:37;8.55;;;6.70;;
81487;SDS011;70897;52.464;13.428;2023-07-20T01:58:23;9.73;;;7.55;;
81487;SDS011;70897;52.464;13.428;2023-07-20T02:01:09;8.98;;;7.53;;
81487;SDS011;70897;52.464;13.428;2023-07-20T02:03:54;11.75;;;7.78;;
81487;SDS011;70897;52.464;13.428;2023-07-20T02:06:39;8.65;;;7.05;;
81487;SDS011;70897;52.464;13.428;2023-07-20T02:09:24;11.48;;;7.85;;
81487;SDS011;70897;52.464;13.428;2023-07-20T02:12:09;9.68;;;7.80;;
81487;SDS011;70897;52.464;13.428;2023-07-20T02:14:54;9.25;;;7.18;;
81487;SDS011;70897;52.464;13.428;2023-07-20T02:17:39;11.23;;;7.43;;
81487;SDS011;70897;52.464;13.428;2023-07-20T02:20:25;9.48;;;7.45;;
81487;SDS011;70897;52.464;13.428;2023-07-20T02:23:10;8.60;;;7.35;;
81487;SDS011;70897;52.464;13.428;2023-07-20T02:25:55;9.68;;;7.25;;
81487;SDS011;70897;52.464;13.428;2023-07-20T02:28:40;10.98;;;7.93;;
81487;SDS011;70897;52.464;13.428;2023-07-20T02:31:25;8.80;;;7.85;;
81487;SDS011;70897;52.464;13.428;2023-07-20T02:34:10;10.52;;;7.85;;
81487;SDS011;70897;52.464;13.428;2023-07-20T02:36:55;9.93;;;7.65;;
81487;SDS011;70897;52.464;13.428;2023-07-20T02:39:42;8.65;;;7.75;;
81487;SDS011;70897;52.464;13.428;2023-07-20T02:42:27;12.75;;;7.97;;
81487;SDS011;70897;52.464;13.428;2023-07-20T02:45:13;9.18;;;7.82;;
81487;SDS011;70897;52.464;13.428;2023-07-20T02:47:58;8.80;;;7.88;;
81487;SDS011;70897;52.464;13.428;2023-07-20T02:50:43;10.73;;;7.97;;
81487;SDS011;70897;52.464;13.428;2023-07-20T02:53:28;11.73;;;9.02;;
81487;SDS011;70897;52.464;13.428;2023-07-20T02:56:13;13.60;;;8.57;;
81487;SDS011;70897;52.464;13.428;2023-07-20T02:58:58;13.13;;;8.85;;
81487;SDS011;70897;52.464;13.428;2023-07-20T03:01:44;9.63;;;8.23;;
81487;SDS011;70897;52.464;13.428;2023-07-20T03:04:29;10.95;;;8.68;;
81487;SDS011;70897;52.464;13.428;2023-07-20T03:07:14;10.95;;;9.38;;
81487;SDS011;70897;52.464;13.428;2023-07-20T03:09:59;12.60;;;9.48;;
81487;SDS011;70897;52.464;13.428;2023-07-20T03:12:44;13.40;;;10.10;;
81487;SDS011;70897;52.464;13.428;2023-07-20T03:15:29;11.52;;;10.18;;
81487;SDS011;70897;52.464;13.428;2023-07-20T03:18:15;13.25;;;10.43;;
81487;SDS011;70897;52.464;13.428;2023-07-20T03:21:00;15.00;;;11.48;;
81487;SDS011;70897;52.464;13.428;2023-07-20T03:23:46;15.40;;;11.35;;
81487;SDS011;70897;52.464;13.428;2023-07-20T03:26:31;13.23;;;11.38;;
81487;SDS011;70897;52.464;13.428;2023-07-20T03:29:16;14.52;;;11.85;;
81487;SDS011;70897;52.464;13.428;2023-07-20T03:32:02;13.80;;;12.00;;
81487;SDS011;70897;52.464;13.428;2023-07-20T03:34:47;15.70;;;11.82;;
81487;SDS011;70897;52.464;13.428;2023-07-20T03:37:32;13.85;;;11.63;;
81487;SDS011;70897;52.464;13.428;2023-07-20T03:40:19;13.60;;;12.20;;
81487;SDS011;70897;52.464;13.428;2023-07-20T03:43:04;14.43;;;11.75;;
81487;SDS011;70897;52.464;13.428;2023-07-20T03:45:49;15.20;;;11.13;;
81487;SDS011;70897;52.464;13.428;2023-07-20T03:48:35;13.57;;;11.52;;
81487;SDS011;70897;52.464;13.428;2023-07-20T03:51:20;13.85;;;11.25;;
81487;SDS011;70897;52.464;13.428;2023-07-20T03:54:05;12.95;;;11.18;;
81487;SDS011;70897;52.464;13.428;2023-07-20T03:56:50;13.57;;;10.73;;
81487;SDS011;70897;52.464;13.428;2023-07-20T03:59:36;14.55;;;10.57;;
81487;SDS011;70897;52.464;13.428;2023-07-20T04:02:22;15.70;;;11.15;;
81487;SDS011;70897;52.464;13.428;2023-07-20T04:05:07;14.10;;;11.98;;
81487;SDS011;70897;52.464;13.428;2023-07-20T04:07:52;14.25;;;12.30;;
81487;SDS011;70897;52.464;13.428;2023-07-20T04:10:37;15.50;;;11.73;;
81487;SDS011;70897;52.464;13.428;2023-07-20T04:13:23;14.48;;;11.80;;
81487;SDS011;70897;52.464;13.428;2023-07-20T04:16:08;14.25;;;12.10;;
81487;SDS011;70897;52.464;13.428;2023-07-20T04:18:56;14.85;;;12.27;;
81487;SDS011;70897;52.464;13.428;2023-07-20T04:21:41;16.90;;;12.90;;
81487;SDS011;70897;52.464;13.428;2023-07-20T04:24:26;17.60;;;12.82;;
81487;SDS011;70897;52.464;13.428;2023-07-20T04:27:11;19.27;;;13.05;;
81487;SDS011;70897;52.464;13.428;2023-07-20T04:30:00;16.27;;;14.25;;
81487;SDS011;70897;52.464;13.428;2023-07-20T04:32:45;15.90;;;13.73;;
81487;SDS011;70897;52.464;13.428;2023-07-20T04:35:45;18.02;;;14.82;;
81487;SDS011;70897;52.464;13.428;2023-07-20T04:38:32;23.75;;;15.63;;
81487;SDS011;70897;52.464;13.428;2023-07-20T04:41:30;17.55;;;15.65;;
81487;SDS011;70897;52.464;13.428;2023-07-20T04:44:15;18.35;;;15.85;;
81487;SDS011;70897;52.464;13.428;2023-07-20T04:47:01;18.05;;;16.13;;
81487;SDS011;70897;52.464;13.428;2023-07-20T04:49:47;18.42;;;16.27;;
81487;SDS011;70897;52.464;13.428;2023-07-20T04:52:33;17.40;;;15.50;;
81487;SDS011;70897;52.464;13.428;2023-07-20T04:55:18;18.52;;;15.98;;
81487;SDS011;70897;52.464;13.428;2023-07-20T04:58:03;17.90;;;15.57;;
81487;SDS011;70897;52.464;13.428;2023-07-20T05:00:49;16.15;;;14.45;;
81487;SDS011;70897;52.464;13.428;2023-07-20T05:03:35;16.58;;;14.48;;
81487;SDS011;70897;52.464;13.428;2023-07-20T05:06:20;15.65;;;12.95;;
81487;SDS011;70897;52.464;13.428;2023-07-20T05:09:05;15.35;;;11.68;;
81487;SDS011;70897;52.464;13.428;2023-07-20T05:11:51;11.77;;;9.80;;
81487;SDS011;70897;52.464;13.428;2023-07-20T05:14:36;10.50;;;9.00;;
81487;SDS011;70897;52.464;13.428;2023-07-20T05:17:21;9.30;;;8.40;;
81487;SDS011;70897;52.464;13.428;2023-07-20T05:20:06;13.68;;;9.50;;
81487;SDS011;70897;52.464;13.428;2023-07-20T05:22:54;10.02;;;7.53;;
81487;SDS011;70897;52.464;13.428;2023-07-20T05:25:39;7.57;;;6.60;;
81487;SDS011;70897;52.464;13.428;2023-07-20T05:28:24;7.35;;;5.88;;
81487;SDS011;70897;52.464;13.428;2023-07-20T05:31:11;10.60;;;6.30;;
81487;SDS011;70897;52.464;13.428;2023-07-20T05:33:56;6.32;;;5.03;;
81487;SDS011;70897;52.464;13.428;2023-07-20T05:36:41;5.43;;;4.90;;
81487;SDS011;70897;52.464;13.428;2023-07-20T05:39:26;6.55;;;5.30;;
81487;SDS011;70897;52.464;13.428;2023-07-20T05:42:11;5.32;;;4.68;;
81487;SDS011;70897;52.464;13.428;2023-07-20T05:44:56;6.38;;;4.50;;
81487;SDS011;70897;52.464;13.428;2023-07-20T05:47:41;6.35;;;3.92;;
81487;SDS011;70897;52.464;13.428;2023-07-20T05:50:26;11.18;;;5.97;;
81487;SDS011;70897;52.464;13.428;2023-07-20T05:53:12;13.02;;;6.32;;
81487;SDS011;70897;52.464;13.428;2023-07-20T05:55:57;6.07;;;3.80;;
81487;SDS011;70897;52.464;13.428;2023-07-20T05:58:42;17.10;;;7.00;;
81487;SDS011;70897;52.464;13.428;2023-07-20T06:01:27;8.27;;;4.55;;
81487;SDS011;70897;52.464;13.428;2023-07-20T06:04:13;6.25;;;3.75;;
81487;SDS011;70897;52.464;13.428;2023-07-20T06:06:58;8.23;;;5.65;;
81487;SDS011;70897;52.464;13.428;2023-07-20T06:09:42;18.92;;;8.88;;
81487;SDS011;70897;52.464;13.428;2023-07-20T06:12:28;17.60;;;8.25;;
81487;SDS011;70897;52.464;13.428;2023-07-20T06:15:24;14.85;;;7.10;;
81487;SDS011;70897;52.464;13.428;2023-07-20T06:18:13;17.73;;;9.27;;
81487;SDS011;70897;52.464;13.428;2023-07-20T06:20:58;16.15;;;7.90;;
81487;SDS011;70897;52.464;13.428;2023-07-20T06:23:43;11.77;;;7.70;;
81487;SDS011;70897;52.464;13.428;2023-07-20T06:26:28;26.77;;;11.57;;
81487;SDS011;70897;52.464;13.428;2023-07-20T06:29:14;13.68;;;8.73;;
81487;SDS011;70897;52.464;13.428;2023-07-20T06:31:59;13.05;;;7.45;;
81487;SDS011;70897;52.464;13.428;2023-07-20T06:34:44;13.98;;;8.00;;
81487;SDS011;70897;52.464;13.428;2023-07-20T06:37:29;18.42;;;9.32;;
81487;SDS011;70897;52.464;13.428;2023-07-20T06:40:14;9.60;;;5.55;;
81487;SDS011;70897;52.464;13.428;2023-07-20T06:42:59;10.23;;;5.20;;
81487;SDS011;70897;52.464;13.428;2023-07-20T06:45:44;9.13;;;5.50;;
81487;SDS011;70897;52.464;13.428;2023-07-20T06:48:29;6.88;;;4.53;;
81487;SDS011;70897;52.464;13.428;2023-07-20T06:51:14;8.77;;;5.07;;
81487;SDS011;70897;52.464;13.428;2023-07-20T06:53:59;11.30;;;6.80;;
81487;SDS011;70897;52.464;13.428;2023-07-20T06:56:44;8.15;;;4.60;;
81487;SDS011;70897;52.464;13.428;2023-07-20T06:59:29;9.38;;;7.05;;
81487;SDS011;70897;52.464;13.428;2023-07-20T07:02:14;5.07;;;2.90;;
81487;SDS011;70897;52.464;13.428;2023-07-20T07:04:59;6.30;;;2.50;;
81487;SDS011;70897;52.464;13.428;2023-07-20T07:07:44;3.55;;;2.05;;
81487;SDS011;70897;52.464;13.428;2023-07-20T07:10:29;2.95;;;2.10;;
81487;SDS011;70897;52.464;13.428;2023-07-20T07:13:14;6.53;;;1.95;;
81487;SDS011;70897;52.464;13.428;2023-07-20T07:15:59;3.75;;;1.83;;
81487;SDS011;70897;52.464;13.428;2023-07-20T07:18:45;2.47;;;1.80;;
81487;SDS011;70897;52.464;13.428;2023-07-20T07:21:30;5.25;;;2.15;;
81487;SDS011;70897;52.464;13.428;2023-07-20T07:24:15;4.13;;;2.65;;
81487;SDS011;70897;52.464;13.428;2023-07-20T07:27:00;8.98;;;2.95;;
81487;SDS011;70897;52.464;13.428;2023-07-20T07:29:46;5.53;;;2.95;;
81487;SDS011;70897;52.464;13.428;2023-07-20T07:32:32;3.20;;;1.90;;
81487;SDS011;70897;52.464;13.428;2023-07-20T07:35:17;3.65;;;1.65;;
81487;SDS011;70897;52.464;13.428;2023-07-20T07:38:02;3.60;;;1.65;;
81487;SDS011;70897;52.464;13.428;2023-07-20T07:40:47;4.25;;;1.55;;
81487;SDS011;70897;52.464;13.428;2023-07-20T07:43:32;10.27;;;4.18;;
81487;SDS011;70897;52.464;13.428;2023-07-20T07:46:17;4.13;;;2.45;;
81487;SDS011;70897;52.464;13.428;2023-07-20T07:49:02;2.42;;;1.27;;
81487;SDS011;70897;52.464;13.428;2023-07-20T07:51:47;2.85;;;1.55;;
81487;SDS011;70897;52.464;13.428;2023-07-20T07:54:32;5.50;;;1.58;;
81487;SDS011;70897;52.464;13.428;2023-07-20T07:57:17;4.47;;;1.55;;
81487;SDS011;70897;52.464;13.428;2023-07-20T08:00:03;4.00;;;1.30;;
81487;SDS011;70897;52.464;13.428;2023-07-20T08:02:50;3.83;;;1.60;;
81487;SDS011;70897;52.464;13.428;2023-07-20T08:05:35;2.45;;;0.93;;
81487;SDS011;70897;52.464;13.428;2023-07-20T08:08:20;2.55;;;1.13;;
81487;SDS011;70897;52.464;13.428;2023-07-20T08:11:05;5.45;;;1.20;;
81487;SDS011;70897;52.464;13.428;2023-07-20T08:13:50;2.33;;;1.13;;
81487;SDS011;70897;52.464;13.428;2023-07-20T08:16:35;3.28;;;1.15;;
81487;SDS011;70897;52.464;13.428;2023-07-20T08:19:20;2.45;;;1.20;;
81487;SDS011;70897;52.464;13.428;2023-07-20T08:22:05;1.75;;;1.00;;
81487;SDS011;70897;52.464;13.428;2023-07-20T08:24:50;2.00;;;1.10;;
81487;SDS011;70897;52.464;13.428;2023-07-20T08:27:35;3.65;;;1.25;;
81487;SDS011;70897;52.464;13.428;2023-07-20T08:30:21;5.75;;;1.40;;
81487;SDS011;70897;52.464;13.428;2023-07-20T08:33:08;6.70;;;3.40;;
81487;SDS011;70897;52.464;13.428;2023-07-20T08:35:57;2.90;;;1.67;;
81487;SDS011;70897;52.464;13.428;2023-07-20T08:38:42;1.65;;;0.98;;
81487;SDS011;70897;52.464;13.428;2023-07-20T08:41:27;4.93;;;0.75;;
81487;SDS011;70897;52.464;13.428;2023-07-20T08:44:12;2.20;;;0.98;;
81487;SDS011;70897;52.464;13.428;2023-07-20T08:46:58;1.48;;;1.00;;
81487;SDS011;70897;52.464;13.428;2023-07-20T08:49:44;3.28;;;1.00;;
81487;SDS011;70897;52.464;13.428;2023-07-20T08:52:33;2.55;;;0.90;;
81487;SDS011;70897;52.464;13.428;2023-07-20T08:55:20;4.15;;;1.00;;
81487;SDS011;70897;52.464;13.428;2023-07-20T08:58:07;4.30;;;0.75;;
81487;SDS011;70897;52.464;13.428;2023-07-20T09:00:53;2.13;;;0.77;;
81487;SDS011;70897;52.464;13.428;2023-07-20T09:03:40;2.17;;;0.85;;
81487;SDS011;70897;52.464;13.428;2023-07-20T09:06:27;2.40;;;0.77;;
81487;SDS011;70897;52.464;13.428;2023-07-20T09:09:12;3.83;;;0.73;;
81487;SDS011;70897;52.464;13.428;2023-07-20T09:11:57;2.42;;;0.90;;
81487;SDS011;70897;52.464;13.428;2023-07-20T09:14:42;2.50;;;0.50;;
81487;SDS011;70897;52.464;13.428;2023-07-20T09:17:28;2.50;;;0.60;;
81487;SDS011;70897;52.464;13.428;2023-07-20T09:20:14;1.60;;;0.50;;
81487;SDS011;70897;52.464;13.428;2023-07-20T09:22:59;1.45;;;0.73;;
81487;SDS011;70897;52.464;13.428;2023-07-20T09:25:48;1.00;;;0.50;;
81487;SDS011;70897;52.464;13.428;2023-07-20T09:28:42;1.00;;;0.45;;
81487;SDS011;70897;52.464;13.428;2023-07-20T09:31:28;2.85;;;0.63;;
81487;SDS011;70897;52.464;13.428;2023-07-20T09:34:13;1.55;;;0.70;;
81487;SDS011;70897;52.464;13.428;2023-07-20T09:37:01;0.90;;;0.60;;
81487;SDS011;70897;52.464;13.428;2023-07-20T09:39:46;1.13;;;0.68;;
81487;SDS011;70897;52.464;13.428;2023-07-20T09:42:31;1.15;;;0.50;;
81487;SDS011;70897;52.464;13.428;2023-07-20T09:45:16;1.65;;;0.63;;
81487;SDS011;70897;52.464;13.428;2023-07-20T09:48:06;2.15;;;0.50;;
81487;SDS011;70897;52.464;13.428;2023-07-20T09:50:52;1.05;;;0.60;;
81487;SDS011;70897;52.464;13.428;2023-07-20T09:53:38;0.70;;;0.43;;
81487;SDS011;70897;52.464;13.428;2023-07-20T09:56:23;1.00;;;0.70;;
81487;SDS011;70897;52.464;13.428;2023-07-20T09:59:09;2.75;;;0.80;;
81487;SDS011;70897;52.464;13.428;2023-07-20T10:01:54;1.02;;;0.52;;
81487;SDS011;70897;52.464;13.428;2023-07-20T10:04:43;1.45;;;0.75;;
81487;SDS011;70897;52.464;13.428;2023-07-20T10:07:29;2.80;;;0.90;;
81487;SDS011;70897;52.464;13.428;2023-07-20T10:10:15;1.20;;;0.55;;
81487;SDS011;70897;52.464;13.428;2023-07-20T10:13:02;5.07;;;0.70;;
81487;SDS011;70897;52.464;13.428;2023-07-20T10:15:50;1.10;;;0.73;;
81487;SDS011;70897;52.464;13.428;2023-07-20T10:18:41;2.92;;;0.60;;
81487;SDS011;70897;52.464;13.428;2023-07-20T10:21:37;1.45;;;0.70;;
81487;SDS011;70897;52.464;13.428;2023-07-20T10:24:31;5.65;;;1.00;;
81487;SDS011;70897;52.464;13.428;2023-07-20T10:27:18;1.20;;;0.85;;
81487;SDS011;70897;52.464;13.428;2023-07-20T10:30:04;3.35;;;0.70;;
81487;SDS011;70897;52.464;13.428;2023-07-20T10:32:50;3.38;;;1.00;;
81487;SDS011;70897;52.464;13.428;2023-07-20T10:36:09;1.35;;;0.77;;
81487;SDS011;70897;52.464;13.428;2023-07-20T10:38:53;1.37;;;0.83;;
81487;SDS011;70897;52.464;13.428;2023-07-20T10:41:40;1.52;;;0.82;;
81487;SDS011;70897;52.464;13.428;2023-07-20T10:44:25;3.33;;;0.80;;
81487;SDS011;70897;52.464;13.428;2023-07-20T10:47:11;2.25;;;0.90;;
81487;SDS011;70897;52.464;13.428;2023-07-20T10:49:58;2.65;;;0.93;;
81487;SDS011;70897;52.464;13.428;2023-07-20T10:52:49;2.22;;;1.65;;
81487;SDS011;70897;52.464;13.428;2023-07-20T10:55:49;3.17;;;2.13;;
81487;SDS011;70897;52.464;13.428;2023-07-20T10:58:59;7.03;;;3.53;;
81487;SDS011;70897;52.464;13.428;2023-07-20T11:01:46;11.60;;;3.80;;
81487;SDS011;70897;52.464;13.428;2023-07-20T11:04:40;1.70;;;1.05;;
81487;SDS011;70897;52.464;13.428;2023-07-20T11:07:36;2.17;;;1.13;;
81487;SDS011;70897;52.464;13.428;2023-07-20T11:10:24;1.60;;;0.70;;
81487;SDS011;70897;52.464;13.428;2023-07-20T11:13:19;2.40;;;1.00;;
81487;SDS011;70897;52.464;13.428;2023-07-20T11:16:07;3.20;;;1.05;;
81487;SDS011;70897;52.464;13.428;2023-07-20T11:18:52;1.55;;;0.90;;
81487;SDS011;70897;52.464;13.428;2023-07-20T11:21:40;2.28;;;1.05;;
81487;SDS011;70897;52.464;13.428;2023-07-20T11:24:25;2.83;;;0.85;;
81487;SDS011;70897;52.464;13.428;2023-07-20T11:27:10;2.83;;;0.90;;
81487;SDS011;70897;52.464;13.428;2023-07-20T11:29:56;3.05;;;0.85;;
81487;SDS011;70897;52.464;13.428;2023-07-20T11:32:47;2.40;;;0.95;;
81487;SDS011;70897;52.464;13.428;2023-07-20T11:35:36;2.90;;;0.90;;
81487;SDS011;70897;52.464;13.428;2023-07-20T11:38:27;0.93;;;0.60;;
81487;SDS011;70897;52.464;13.428;2023-07-20T11:41:12;1.98;;;0.80;;
81487;SDS011;70897;52.464;13.428;2023-07-20T11:43:57;3.67;;;0.80;;
81487;SDS011;70897;52.464;13.428;2023-07-20T11:46:43;1.70;;;0.80;;
81487;SDS011;70897;52.464;13.428;2023-07-20T11:49:29;1.35;;;0.63;;
81487;SDS011;70897;52.464;13.428;2023-07-20T11:52:15;2.40;;;0.73;;
81487;SDS011;70897;52.464;13.428;2023-07-20T11:55:01;1.73;;;0.80;;
81487;SDS011;70897;52.464;13.428;2023-07-20T11:58:05;1.33;;;0.70;;
81487;SDS011;70897;52.464;13.428;2023-07-20T12:00:51;1.50;;;0.70;;
81487;SDS011;70897;52.464;13.428;2023-07-20T12:03:39;1.27;;;0.70;;
81487;SDS011;70897;52.464;13.428;2023-07-20T12:06:27;2.45;;;0.63;;
81487;SDS011;70897;52.464;13.428;2023-07-20T12:09:16;3.05;;;0.70;;
81487;SDS011;70897;52.464;13.428;2023-07-20T12:12:03;5.05;;;0.88;;
81487;SDS011;70897;52.464;13.428;2023-07-20T12:17:43;1.58;;;0.80;;
81487;SDS011;70897;52.464;13.428;2023-07-20T12:20:29;1.48;;;0.70;;
81487;SDS011;70897;52.464;13.428;2023-07-20T12:23:20;2.20;;;0.80;;
81487;SDS011;70897;52.464;13.428;2023-07-20T12:26:06;1.20;;;0.65;;
81487;SDS011;70897;52.464;13.428;2023-07-20T12:28:53;2.65;;;0.80;;
81487;SDS011;70897;52.464;13.428;2023-07-20T12:31:38;2.20;;;0.70;;
81487;SDS011;70897;52.464;13.428;2023-07-20T12:34:23;1.65;;;0.77;;
81487;SDS011;70897;52.464;13.428;2023-07-20T12:37:08;2.75;;;0.80;;
81487;SDS011;70897;52.464;13.428;2023-07-20T12:39:53;2.30;;;0.90;;
81487;SDS011;70897;52.464;13.428;2023-07-20T12:42:38;3.40;;;0.90;;
81487;SDS011;70897;52.464;13.428;2023-07-20T12:45:23;2.33;;;0.70;;
81487;SDS011;70897;52.464;13.428;2023-07-20T12:48:08;1.98;;;0.80;;
81487;SDS011;70897;52.464;13.428;2023-07-20T12:50:53;0.80;;;0.60;;
81487;SDS011;70897;52.464;13.428;2023-07-20T12:53:38;1.52;;;0.70;;
81487;SDS011;70897;52.464;13.428;2023-07-20T12:56:23;1.42;;;0.68;;
81487;SDS011;70897;52.464;13.428;2023-07-20T12:59:08;2.38;;;1.08;;
81487;SDS011;70897;52.464;13.428;2023-07-20T13:01:53;3.38;;;1.23;;
81487;SDS011;70897;52.464;13.428;2023-07-20T13:04:38;2.70;;;0.70;;
81487;SDS011;70897;52.464;13.428;2023-07-20T13:07:32;1.85;;;0.73;;
81487;SDS011;70897;52.464;13.428;2023-07-20T13:10:21;1.20;;;0.60;;
81487;SDS011;70897;52.464;13.428;2023-07-20T13:13:06;2.28;;;0.95;;
81487;SDS011;70897;52.464;13.428;2023-07-20T13:15:52;0.68;;;0.57;;
81487;SDS011;70897;52.464;13.428;2023-07-20T13:18:38;1.55;;;0.90;;
81487;SDS011;70897;52.464;13.428;2023-07-20T13:21:23;4.43;;;1.25;;
81487;SDS011;70897;52.464;13.428;2023-07-20T13:24:09;0.85;;;0.50;;
81487;SDS011;70897;52.464;13.428;2023-07-20T13:26:54;1.70;;;0.50;;
81487;SDS011;70897;52.464;13.428;2023-07-20T13:29:39;1.00;;;0.68;;
81487;SDS011;70897;52.464;13.428;2023-07-20T13:32:25;1.27;;;0.57;;
81487;SDS011;70897;52.464;13.428;2023-07-20T13:35:11;1.20;;;0.50;;
81487;SDS011;70897;52.464;13.428;2023-07-20T13:37:56;3.13;;;0.73;;
81487;SDS011;70897;52.464;13.428;2023-07-20T13:40:41;1.23;;;0.45;;
81487;SDS011;70897;52.464;13.428;2023-07-20T13:43:26;0.40;;;0.30;;
81487;SDS011;70897;52.464;13.428;2023-07-20T13:46:11;0.80;;;0.45;;
81487;SDS011;70897;52.464;13.428;2023-07-20T13:48:57;1.95;;;0.40;;
81487;SDS011;70897;52.464;13.428;2023-07-20T13:51:42;1.98;;;0.38;;
81487;SDS011;70897;52.464;13.428;2023-07-20T13:54:27;0.88;;;0.45;;
81487;SDS011;70897;52.464;13.428;2023-07-20T13:57:12;0.43;;;0.35;;
81487;SDS011;70897;52.464;13.428;2023-07-20T13:59:57;3.97;;;0.50;;
81487;SDS011;70897;52.464;13.428;2023-07-20T14:02:44;1.15;;;0.40;;
81487;SDS011;70897;52.464;13.428;2023-07-20T14:05:29;2.42;;;0.60;;
81487;SDS011;70897;52.464;13.428;2023-07-20T14:08:14;1.45;;;0.55;;
81487;SDS011;70897;52.464;13.428;2023-07-20T14:10:59;2.42;;;0.70;;
81487;SDS011;70897;52.464;13.428;2023-07-20T14:13:44;3.67;;;0.70;;
81487;SDS011;70897;52.464;13.428;2023-07-20T14:16:29;2.92;;;0.60;;
81487;SDS011;70897;52.464;13.428;2023-07-20T14:19:16;1.02;;;0.55;;
81487;SDS011;70897;52.464;13.428;2023-07-20T14:22:01;0.88;;;0.57;;
81487;SDS011;70897;52.464;13.428;2023-07-20T14:24:48;2.17;;;0.60;;
81487;SDS011;70897;52.464;13.428;2023-07-20T14:27:33;1.20;;;0.50;;
81487;SDS011;70897;52.464;13.428;2023-07-20T14:30:18;0.93;;;0.52;;
81487;SDS011;70897;52.464;13.428;2023-07-20T14:33:03;2.47;;;0.40;;
81487;SDS011;70897;52.464;13.428;2023-07-20T14:35:48;0.80;;;0.60;;
81487;SDS011;70897;52.464;13.428;2023-07-20T14:38:33;1.30;;;0.60;;
81487;SDS011;70897;52.464;13.428;2023-07-20T14:41:19;2.17;;;0.75;;
81487;SDS011;70897;52.464;13.428;2023-07-20T14:44:05;1.58;;;0.63;;
81487;SDS011;70897;52.464;13.428;2023-07-20T14:46:50;2.50;;;0.70;;
81487;SDS011;70897;52.464;13.428;2023-07-20T14:49:35;3.00;;;0.63;;
81487;SDS011;70897;52.464;13.428;2023-07-20T14:52:20;2.45;;;0.65;;
81487;SDS011;70897;52.464;13.428;2023-07-20T14:55:05;1.33;;;0.60;;
81487;SDS011;70897;52.464;13.428;2023-07-20T14:57:50;1.90;;;0.68;;
81487;SDS011;70897;52.464;13.428;2023-07-20T15:00:35;2.85;;;0.70;;
81487;SDS011;70897;52.464;13.428;2023-07-20T15:03:21;2.17;;;0.63;;
81487;SDS011;70897;52.464;13.428;2023-07-20T15:06:10;1.98;;;0.55;;
81487;SDS011;70897;52.464;13.428;2023-07-20T15:08:56;6.82;;;0.77;;
81487;SDS011;70897;52.464;13.428;2023-07-20T15:11:41;1.67;;;0.50;;
81487;SDS011;70897;52.464;13.428;2023-07-20T15:14:27;1.63;;;0.70;;
81487;SDS011;70897;52.464;13.428;2023-07-20T15:17:13;2.35;;;0.70;;
81487;SDS011;70897;52.464;13.428;2023-07-20T15:19:58;2.25;;;1.00;;
81487;SDS011;70897;52.464;13.428;2023-07-20T15:22:43;2.92;;;0.93;;
81487;SDS011;70897;52.464;13.428;2023-07-20T15:25:28;2.40;;;1.20;;
81487;SDS011;70897;52.464;13.428;2023-07-20T15:28:13;2.85;;;0.63;;
81487;SDS011;70897;52.464;13.428;2023-07-20T15:31:02;2.22;;;0.85;;
81487;SDS011;70897;52.464;13.428;2023-07-20T15:33:48;3.40;;;0.90;;
81487;SDS011;70897;52.464;13.428;2023-07-20T15:36:33;2.33;;;0.80;;
81487;SDS011;70897;52.464;13.428;2023-07-20T15:39:18;1.95;;;0.70;;
81487;SDS011;70897;52.464;13.428;2023-07-20T15:42:04;1.90;;;0.93;;
81487;SDS011;70897;52.464;13.428;2023-07-20T15:44:50;2.33;;;1.00;;
81487;SDS011;70897;52.464;13.428;2023-07-20T15:47:35;2.58;;;1.77;;
81487;SDS011;70897;52.464;13.428;2023-07-20T15:50:20;4.20;;;1.08;;
81487;SDS011;70897;52.464;13.428;2023-07-20T15:53:06;3.03;;;1.80;;
81487;SDS011;70897;52.464;13.428;2023-07-20T15:55:54;1.95;;;0.90;;
81487;SDS011;70897;52.464;13.428;2023-07-20T15:58:40;2.90;;;0.90;;
81487;SDS011;70897;52.464;13.428;2023-07-20T16:01:25;1.55;;;0.70;;
81487;SDS011;70897;52.464;13.428;2023-07-20T16:04:10;1.90;;;1.08;;
81487;SDS011;70897;52.464;13.428;2023-07-20T16:06:58;2.90;;;1.40;;
81487;SDS011;70897;52.464;13.428;2023-07-20T16:09:43;2.95;;;1.33;;
81487;SDS011;70897;52.464;13.428;2023-07-20T16:12:28;3.08;;;1.50;;
81487;SDS011;70897;52.464;13.428;2023-07-20T16:15:15;3.55;;;2.03;;
81487;SDS011;70897;52.464;13.428;2023-07-20T16:18:00;3.30;;;1.42;;
81487;SDS011;70897;52.464;13.428;2023-07-20T16:20:45;2.08;;;1.10;;
81487;SDS011;70897;52.464;13.428;2023-07-20T16:23:30;3.78;;;1.10;;
81487;SDS011;70897;52.464;13.428;2023-07-20T16:26:15;2.60;;;1.30;;
81487;SDS011;70897;52.464;13.428;2023-07-20T16:29:00;2.47;;;1.20;;
81487;SDS011;70897;52.464;13.428;2023-07-20T16:31:46;4.60;;;1.17;;
81487;SDS011;70897;52.464;13.428;2023-07-20T16:34:31;4.65;;;1.30;;